Time;durP1;ratioP1;P1;durP2;ratioP2;P2;SDS_P1;SDS_P2;PMS_P1;PMS_P2;Temp;Humidity;BMP_temperature;BMP_pressure;BME280_temperature;BME280_humidity;BME280_pressure;Samples;Min_cycle;Max_cycle;Signal;HPM_P1;HPM_P2
2023/03/13 00:02:02;;;;;;;5.03;1.90;;;;;;;2.19;69.69;100256.03;6298256;28;20043;-76
2023/03/13 00:05:03;;;;;;;3.67;1.67;;;;;;;2.14;69.94;100257.84;6299045;28;20048;-71
2023/03/13 00:08:04;;;;;;;7.35;2.55;;;;;;;2.25;69.90;100266.19;6299172;28;20589;-75
2023/03/13 00:11:06;;;;;;;6.15;2.03;;;;;;;2.29;69.89;100279.84;6298135;28;20104;-75
2023/03/13 00:14:07;;;;;;;3.17;1.35;;;;;;;2.30;70.73;100284.94;6298977;28;20048;-76
2023/03/13 00:17:08;;;;;;;3.80;1.60;;;;;;;2.34;70.39;100281.41;6297881;28;20127;-72
2023/03/13 00:20:09;;;;;;;1.88;1.17;;;;;;;2.45;70.15;100283.75;6298081;28;20037;-76
2023/03/13 00:23:11;;;;;;;2.80;1.55;;;;;;;2.37;70.37;100281.34;6297886;28;20051;-76
2023/03/13 00:26:14;;;;;;;3.83;2.08;;;;;;;2.34;70.87;100281.41;6299013;28;20119;-75
2023/03/13 00:29:15;;;;;;;2.10;1.70;;;;;;;2.39;70.37;100282.16;6297788;28;20044;-76
2023/03/13 00:32:15;;;;;;;3.35;1.75;;;;;;;2.35;70.77;100288.25;6298503;28;20047;-71
2023/03/13 00:35:16;;;;;;;3.55;1.70;;;;;;;2.47;70.44;100292.28;6298316;28;20547;-76
2023/03/13 00:38:17;;;;;;;1.30;1.00;;;;;;;2.42;70.91;100292.38;6297619;28;20044;-76
2023/03/13 00:41:20;;;;;;;1.42;1.05;;;;;;;2.47;70.54;100284.56;6298118;28;20056;-71
2023/03/13 00:44:24;;;;;;;1.45;1.35;;;;;;;2.36;71.23;100281.38;6298250;28;20071;-71
2023/03/13 00:47:25;;;;;;;3.58;1.85;;;;;;;2.37;71.12;100281.34;6297575;28;20044;-76
2023/03/13 00:50:26;;;;;;;2.67;2.13;;;;;;;2.31;71.58;100278.91;6298058;28;20045;-76
2023/03/13 00:53:27;;;;;;;2.28;1.38;;;;;;;2.34;71.41;100276.25;6298564;28;20419;-76
2023/03/13 00:56:28;;;;;;;3.85;2.17;;;;;;;2.29;72.16;100262.66;6299204;28;20043;-76
2023/03/13 00:59:29;;;;;;;1.75;1.40;;;;;;;2.42;72.02;100261.47;6298902;28;20036;-76
2023/03/13 01:02:30;;;;;;;2.42;1.70;;;;;;;2.36;72.38;100246.16;6298801;28;20071;-76
2023/03/13 01:05:31;;;;;;;3.10;1.80;;;;;;;2.33;72.31;100242.84;6297635;28;20044;-71
2023/03/13 01:08:32;;;;;;;4.07;2.15;;;;;;;2.34;72.35;100237.63;6298451;28;20395;-75
2023/03/13 01:11:36;;;;;;;1.90;1.75;;;;;;;2.30;72.25;100238.56;6297744;28;20051;-71
2023/03/13 01:14:39;;;;;;;1.15;1.05;;;;;;;2.37;72.03;100241.88;6297526;28;20098;-71
2023/03/13 01:17:43;;;;;;;1.20;1.10;;;;;;;2.43;72.22;100236.56;6296541;28;20509;-75
2023/03/13 01:20:48;;;;;;;6.68;2.50;;;;;;;2.46;71.85;100239.06;6298290;28;20546;-75
2023/03/13 01:23:51;;;;;;;1.95;1.35;;;;;;;2.46;72.43;100249.38;6296258;28;20036;-71
2023/03/13 01:26:52;;;;;;;;;;;;;;;2.52;72.18;100240.66;6296365;28;20044;-71
2023/03/13 01:29:52;;;;;;;2.42;1.38;;;;;;;2.51;72.14;100236.34;6297135;28;19920;-75
2023/03/13 01:32:53;;;;;;;1.73;1.08;;;;;;;2.53;72.22;100232.03;6297298;28;20113;-72
2023/03/13 01:36:01;;;;;;;2.70;2.45;;;;;;;2.45;72.44;100234.81;6296875;28;20043;-71
2023/03/13 01:39:05;;;;;;;1.48;1.10;;;;;;;2.52;72.56;100240.66;6296640;28;20048;-75
2023/03/13 01:42:06;;;;;;;1.23;1.13;;;;;;;2.50;72.90;100243.25;6296169;28;20040;-76
2023/03/13 01:45:45;;;;;;;2.67;1.83;;;;;;;2.37;73.36;100241.88;6297046;28;20050;-75
2023/03/13 01:48:52;;;;;;;2.83;1.35;;;;;;;2.46;73.76;100239.06;6297602;28;20048;-76
2023/03/13 01:52:05;;;;;;;0.95;0.73;;;;;;;2.40;73.63;100249.50;6295259;28;20051;-71
2023/03/13 01:55:13;;;;;;;1.50;1.15;;;;;;;2.51;73.57;100254.41;6296473;28;20419;-72
2023/03/13 01:58:14;;;;;;;2.15;1.35;;;;;;;2.54;73.15;100256.91;6296850;28;20040;-71
2023/03/13 02:01:20;;;;;;;2.22;1.20;;;;;;;2.65;73.06;100262.63;6295035;28;20056;-71
2023/03/13 02:04:22;;;;;;;3.20;1.95;;;;;;;2.60;73.54;100264.50;6295416;28;20113;-71
2023/03/13 02:07:30;;;;;;;2.08;1.85;;;;;;;2.48;74.13;100263.06;6296896;28;20083;-75
2023/03/13 02:10:45;;;;;;;1.15;1.05;;;;;;;2.61;74.19;100261.00;6296156;28;20406;-75
2023/03/13 02:13:49;;;;;;;2.15;1.17;;;;;;;2.62;74.21;100258.41;6295846;28;20036;-76
2023/03/13 02:16:50;;;;;;;2.17;1.05;;;;;;;2.57;73.90;100251.66;6296744;28;20486;-72
2023/03/13 02:19:52;;;;;;;1.03;1.00;;;;;;;2.65;74.44;100261.78;6294865;28;20048;-71
2023/03/13 02:23:04;;;;;;;9.00;1.92;;;;;;;2.66;74.31;100253.16;6294864;28;20285;-75
2023/03/13 02:26:05;;;;;;;2.40;1.60;;;;;;;2.59;74.28;100268.81;6295957;28;20387;-75
2023/03/13 02:29:07;;;;;;;0.90;0.90;;;;;;;2.52;75.12;100264.66;6295794;28;20040;-71
2023/03/13 02:32:08;;;;;;;2.78;1.17;;;;;;;2.59;75.15;100258.50;6295256;28;20094;-75
2023/03/13 02:35:12;;;;;;;2.38;1.70;;;;;;;2.58;74.76;100261.94;6296095;28;20043;-71
2023/03/13 02:38:19;;;;;;;1.45;1.17;;;;;;;2.55;75.09;100254.31;6294612;28;20620;-71
2023/03/13 02:41:23;;;;;;;0.82;0.82;;;;;;;2.46;75.89;100243.38;6294319;28;20056;-71
2023/03/13 02:44:26;;;;;;;2.88;2.17;;;;;;;2.52;75.45;100253.53;6295677;28;20078;-71
2023/03/13 02:47:27;;;;;;;4.75;2.15;;;;;;;2.42;75.59;100256.31;6296232;28;20066;-76
2023/03/13 02:50:29;;;;;;;1.10;1.00;;;;;;;2.45;75.79;100250.25;6295263;28;20654;-71
2023/03/13 02:53:32;;;;;;;2.17;1.70;;;;;;;2.45;75.45;100242.53;6295805;28;20044;-71
2023/03/13 02:56:36;;;;;;;3.13;1.98;;;;;;;2.24;76.61;100236.16;6294756;28;20280;-71
2023/03/13 02:59:37;;;;;;;2.05;1.15;;;;;;;2.36;76.58;100233.28;6300941;28;20403;-76
2023/03/13 03:02:38;;;;;;;2.00;1.27;;;;;;;2.35;76.21;100223.88;6301604;28;20071;-71
2023/03/13 03:05:39;;;;;;;3.40;1.95;;;;;;;2.38;75.83;100225.53;6300987;28;20068;-76
2023/03/13 03:08:40;;;;;;;2.45;2.25;;;;;;;2.38;75.86;100225.53;6299550;28;20044;-75
2023/03/13 03:11:41;;;;;;;3.03;1.40;;;;;;;2.35;76.64;100231.59;6300881;28;20049;-71
2023/03/13 03:14:42;;;;;;;3.50;2.00;;;;;;;2.43;76.20;100226.28;6300065;28;20403;-75
2023/03/13 03:17:42;;;;;;;1.73;1.63;;;;;;;2.34;75.93;100223.91;6299743;28;20483;-75
2023/03/13 03:20:43;;;;;;;2.20;1.63;;;;;;;2.40;76.10;100226.34;6301270;28;20479;-71
2023/03/13 03:23:44;;;;;;;1.70;1.60;;;;;;;2.48;75.09;100232.13;6300600;28;20039;-75
2023/03/13 03:26:45;;;;;;;2.13;1.70;;;;;;;2.28;75.99;100235.19;6300079;28;20033;-72
2023/03/13 03:29:46;;;;;;;1.30;0.77;;;;;;;2.19;76.40;100235.44;6300045;28;20040;-71
2023/03/13 03:32:47;;;;;;;5.78;2.60;;;;;;;2.29;76.38;100225.75;6299254;28;20059;-76
2023/03/13 03:35:48;;;;;;;2.15;1.25;;;;;;;2.27;76.46;100223.22;6301315;28;20044;-76
2023/03/13 03:38:50;;;;;;;3.42;2.70;;;;;;;2.32;75.89;100211.06;6301190;28;20049;-76
2023/03/13 03:41:51;;;;;;;2.58;1.95;;;;;;;2.28;76.14;100206.88;6298432;28;20056;-71
2023/03/13 03:44:51;;;;;;;3.40;1.90;;;;;;;2.34;75.87;100213.59;6300239;28;20048;-76
2023/03/13 03:47:52;;;;;;;3.10;1.92;;;;;;;2.24;75.99;100212.13;6298820;28;20032;-71
2023/03/13 03:50:53;;;;;;;5.50;2.00;;;;;;;2.31;76.21;100234.28;6300068;28;20070;-76
2023/03/13 03:53:54;;;;;;;2.58;2.08;;;;;;;2.41;75.89;100236.59;6299165;28;20072;-71
2023/03/13 03:56:55;;;;;;;5.20;2.30;;;;;;;2.36;75.94;100235.03;6299300;28;20041;-75
2023/03/13 03:59:56;;;;;;;4.10;1.58;;;;;;;2.38;75.82;100238.41;6300110;28;20049;-71
2023/03/13 04:02:57;;;;;;;4.32;2.42;;;;;;;2.35;75.33;100244.47;6298765;28;20041;-75
2023/03/13 04:05:57;;;;;;;1.88;1.63;;;;;;;2.44;74.64;100258.84;6299285;28;20041;-75
2023/03/13 04:08:58;;;;;;;3.75;2.70;;;;;;;2.49;74.46;100266.47;6299656;28;20452;-75
2023/03/13 04:11:59;;;;;;;2.88;1.67;;;;;;;2.51;74.53;100270.72;6298913;28;20052;-76
2023/03/13 04:15:00;;;;;;;3.05;2.30;;;;;;;2.63;73.88;100274.69;6299261;28;20358;-76
2023/03/13 04:18:00;;;;;;;3.50;2.17;;;;;;;2.61;74.37;100281.63;6300133;28;20090;-76
2023/03/13 04:21:03;;;;;;;1.90;1.65;;;;;;;2.59;74.07;100278.25;6300191;28;20037;-75
2023/03/13 04:24:04;;;;;;;1.88;1.23;;;;;;;2.55;74.41;100274.91;6298996;28;20479;-71
2023/03/13 04:27:05;;;;;;;2.38;1.67;;;;;;;2.47;75.68;100284.56;6299384;28;20037;-75
2023/03/13 04:30:07;;;;;;;2.75;2.20;;;;;;;2.42;75.11;100302.66;6299342;28;20047;-75
2023/03/13 04:33:08;;;;;;;2.60;1.63;;;;;;;2.58;75.30;100307.47;6298073;28;20485;-76
2023/03/13 04:36:09;;;;;;;3.53;1.42;;;;;;;2.66;74.71;100305.56;6298702;28;20045;-75
2023/03/13 04:39:09;;;;;;;4.47;1.85;;;;;;;2.48;75.31;100303.41;6297674;28;20418;-71
2023/03/13 04:42:11;;;;;;;4.55;2.47;;;;;;;2.50;75.31;100314.53;6298005;28;20056;-71
2023/03/13 04:45:11;;;;;;;2.67;1.73;;;;;;;2.48;75.47;100306.84;6298916;28;20125;-75
2023/03/13 04:48:13;;;;;;;3.50;2.22;;;;;;;2.57;75.50;100311.78;6298217;28;20110;-75
2023/03/13 04:51:16;;;;;;;1.80;1.63;;;;;;;2.59;74.85;100315.16;6299643;28;20049;-75
2023/03/13 04:54:19;;;;;;;4.78;2.35;;;;;;;2.71;74.55;100311.44;6299174;28;20047;-73
2023/03/13 04:57:20;;;;;;;3.33;2.28;;;;;;;2.67;74.54;100312.38;6297192;28;20117;-76
2023/03/13 05:00:21;;;;;;;2.28;1.35;;;;;;;2.75;73.97;100327.66;6296788;28;20044;-71
2023/03/13 05:03:22;;;;;;;9.32;2.22;;;;;;;2.63;74.14;100323.66;6297916;28;20049;-72
2023/03/13 05:06:23;;;;;;;3.08;1.75;;;;;;;2.52;75.17;100330.81;6296488;28;20376;-71
2023/03/13 05:09:24;;;;;;;3.22;1.75;;;;;;;2.64;74.67;100335.66;6298340;28;20036;-76
2023/03/13 05:12:24;;;;;;;1.73;1.52;;;;;;;2.67;73.95;100334.75;6297575;28;20106;-71
2023/03/13 05:15:25;;;;;;;4.15;2.78;;;;;;;2.70;74.32;100335.53;6297535;28;20048;-71
2023/03/13 05:18:26;;;;;;;9.15;3.00;;;;;;;2.84;73.34;100330.00;6296236;28;20040;-71
2023/03/13 05:21:27;;;;;;;1.35;1.15;;;;;;;2.88;73.52;100330.78;6295647;28;20044;-71
2023/03/13 05:24:28;;;;;;;2.45;1.70;;;;;;;2.76;73.78;100332.78;6297253;28;20045;-71
2023/03/13 05:27:28;;;;;;;2.67;2.05;;;;;;;2.67;74.08;100345.03;6297174;28;20037;-71
2023/03/13 05:30:35;;;;;;;2.28;1.75;;;;;;;2.75;74.32;100350.88;6296845;28;20162;-76
2023/03/13 05:33:36;;;;;;;2.58;1.75;;;;;;;2.69;74.61;100349.28;6296001;28;20095;-71
2023/03/13 05:36:37;;;;;;;3.03;2.33;;;;;;;2.80;74.55;100349.88;6297585;28;20120;-76
2023/03/13 05:39:37;;;;;;;1.50;1.40;;;;;;;2.80;74.65;100342.16;6297155;28;20044;-71
2023/03/13 05:42:39;;;;;;;1.75;1.58;;;;;;;2.71;74.64;100347.50;6296967;28;20403;-72
2023/03/13 05:45:42;;;;;;;3.47;2.40;;;;;;;2.76;75.00;100340.53;6296696;28;20075;-71
2023/03/13 05:48:45;;;;;;;3.05;1.70;;;;;;;2.76;75.19;100347.38;6297311;28;20060;-71
2023/03/13 05:51:46;;;;;;;4.03;2.53;;;;;;;2.74;74.93;100344.88;6297089;28;20041;-71
2023/03/13 05:54:47;;;;;;;2.10;1.90;;;;;;;2.84;74.61;100342.91;6297168;28;20533;-75
2023/03/13 05:57:48;;;;;;;3.10;1.98;;;;;;;2.85;75.03;100334.28;6295445;28;20044;-72
2023/03/13 06:00:49;;;;;;;3.38;2.83;;;;;;;2.85;74.46;100348.91;6297750;28;20040;-76
2023/03/13 06:03:49;;;;;;;3.45;2.22;;;;;;;2.81;74.91;100348.97;6296470;28;20128;-75
2023/03/13 06:06:50;;;;;;;2.28;1.75;;;;;;;2.78;74.45;100354.22;6297589;28;20540;-75
2023/03/13 06:09:51;;;;;;;5.28;1.77;;;;;;;2.75;75.61;100349.13;6296463;28;20119;-76
2023/03/13 06:12:53;;;;;;;3.67;2.13;;;;;;;2.89;75.42;100356.53;6297578;28;20048;-76
2023/03/13 06:15:56;;;;;;;2.20;2.00;;;;;;;2.78;75.35;100364.53;6296301;28;20128;-71
2023/03/13 06:18:57;;;;;;;4.15;2.38;;;;;;;2.81;74.43;100369.59;6295355;28;20076;-71
2023/03/13 06:21:58;;;;;;;5.63;3.08;;;;;;;3.07;74.16;100381.00;6294950;28;20047;-71
2023/03/13 06:24:59;;;;;;;5.82;2.33;;;;;;;3.12;74.14;100373.16;6296068;28;20063;-75
2023/03/13 06:27:59;;;;;;;2.22;1.38;;;;;;;2.85;74.07;100365.22;6295658;28;20049;-75
2023/03/13 06:31:02;;;;;;;2.40;1.65;;;;;;;2.91;74.69;100372.81;6296678;28;20056;-71
2023/03/13 06:34:03;;;;;;;2.40;1.70;;;;;;;3.01;74.21;100381.16;6294256;28;20094;-71
2023/03/13 06:37:06;;;;;;;1.30;1.20;;;;;;;3.02;73.29;100381.09;6295955;28;20041;-71
2023/03/13 06:40:08;;;;;;;1.38;1.05;;;;;;;3.00;73.30;100385.44;6294266;28;20060;-71
2023/03/13 06:43:13;;;;;;;2.92;1.65;;;;;;;3.14;73.24;100376.53;6296738;28;20044;-71
2023/03/13 06:46:17;;;;;;;4.53;1.83;;;;;;;3.08;73.79;100382.69;6295740;28;20052;-75
2023/03/13 06:49:19;;;;;;;3.33;1.88;;;;;;;3.15;73.27;100375.66;6296950;28;20036;-71
2023/03/13 06:52:19;;;;;;;3.90;2.00;;;;;;;3.23;72.67;100384.91;6294283;28;20071;-71
2023/03/13 06:55:20;;;;;;;6.72;2.33;;;;;;;3.28;73.53;100379.63;6296240;28;20051;-71
2023/03/13 06:58:23;;;;;;;3.60;2.38;;;;;;;3.22;72.88;100379.78;6297221;28;20048;-75
2023/03/13 07:01:24;;;;;;;2.03;1.77;;;;;;;3.23;73.16;100381.47;6296310;28;20097;-75
2023/03/13 07:04:25;;;;;;;3.70;2.72;;;;;;;3.30;73.66;100383.00;6296508;28;20120;-76
2023/03/13 07:07:26;;;;;;;4.60;2.80;;;;;;;3.54;73.09;100393.56;6294528;28;20457;-71
2023/03/13 07:10:31;;;;;;;5.90;2.63;;;;;;;3.42;72.47;100389.59;6297189;28;20044;-71
2023/03/13 07:13:32;;;;;;;2.78;1.88;;;;;;;3.32;73.24;100388.97;6294885;28;20300;-71
2023/03/13 07:16:33;;;;;;;6.15;2.30;;;;;;;3.27;74.23;100383.06;6295159;28;20037;-71
2023/03/13 07:19:33;;;;;;;3.13;2.67;;;;;;;3.23;73.36;100391.78;6295136;28;20446;-70
2023/03/13 07:22:34;;;;;;;2.25;1.90;;;;;;;3.33;73.18;100394.97;6295308;28;20044;-75
2023/03/13 07:25:36;;;;;;;3.63;2.03;;;;;;;3.37;73.21;100388.84;6294834;28;20380;-71
2023/03/13 07:28:38;;;;;;;2.15;1.63;;;;;;;3.66;72.60;100397.56;6287883;28;20059;-75
2023/03/13 07:31:39;;;;;;;2.83;1.15;;;;;;;3.69;72.93;100387.16;6291976;28;20048;-70
2023/03/13 07:34:43;;;;;;;2.33;1.75;;;;;;;3.86;72.11;100379.78;6296938;28;20086;-75
2023/03/13 07:37:44;;;;;;;4.00;1.52;;;;;;;3.91;71.17;100390.84;6296066;28;20080;-76
2023/03/13 07:40:47;;;;;;;;;;;;;;;3.89;70.71;100391.75;6296265;28;20044;-71
2023/03/13 07:43:48;;;;;;;1.38;1.27;;;;;;;4.08;70.42;100387.78;6295483;28;19920;-71
2023/03/13 07:46:49;;;;;;;1.95;1.42;;;;;;;4.08;69.47;100389.50;6332347;28;20398;-71
2023/03/13 07:49:50;;;;;;;3.53;1.73;;;;;;;4.29;70.03;100378.53;6300327;28;20032;-76
2023/03/13 07:52:53;;;;;;;1.63;1.25;;;;;;;4.40;69.26;100370.47;6298463;28;20047;-71
2023/03/13 07:55:59;;;;;;;2.13;1.70;;;;;;;4.53;68.63;100378.69;6299370;28;20376;-71
2023/03/13 07:59:00;;;;;;;1.50;1.23;;;;;;;4.60;68.82;100373.28;6299665;28;20052;-72
2023/03/13 08:02:01;;;;;;;2.78;2.13;;;;;;;4.64;67.63;100374.03;6298249;28;20041;-71
2023/03/13 08:05:02;;;;;;;3.70;1.88;;;;;;;4.67;67.67;100365.34;6300107;28;20047;-75
2023/03/13 08:08:05;;;;;;;1.48;1.38;;;;;;;4.94;67.52;100363.59;6299196;28;20032;-75
2023/03/13 08:11:10;;;;;;;4.25;2.15;;;;;;;4.92;66.79;100355.03;6299814;28;20044;-75
2023/03/13 08:14:11;;;;;;;1.92;1.45;;;;;;;5.05;65.63;100353.75;6299479;28;20041;-71
2023/03/13 08:17:11;;;;;;;3.72;1.83;;;;;;;5.29;66.19;100346.03;6300078;28;20044;-75
2023/03/13 08:20:12;;;;;;;4.93;2.15;;;;;;;5.47;64.65;100350.59;6300998;28;20072;-76
2023/03/13 08:23:13;;;;;;;1.83;1.60;;;;;;;5.30;64.04;100343.41;6299567;28;20086;-75
2023/03/13 08:26:16;;;;;;;5.65;1.48;;;;;;;5.21;63.91;100357.50;6298869;28;20068;-75
2023/03/13 08:29:17;;;;;;;2.88;1.85;;;;;;;5.26;64.78;100341.84;6300072;28;20479;-71
2023/03/13 08:32:18;;;;;;;1.33;1.23;;;;;;;5.33;64.30;100342.47;6298780;28;20060;-75
2023/03/13 08:35:19;;;;;;;5.00;2.65;;;;;;;5.53;64.29;100350.38;6300177;28;20479;-71
2023/03/13 08:38:19;;;;;;;2.17;1.67;;;;;;;5.58;64.20;100348.47;6299003;28;20127;-75
2023/03/13 08:41:28;;;;;;;6.47;2.97;;;;;;;5.66;62.99;100335.22;6298016;28;20060;-75
2023/03/13 08:44:29;;;;;;;7.43;3.85;;;;;;;5.67;62.47;100344.69;6297805;28;20045;-71
2023/03/13 08:47:30;;;;;;;7.07;3.58;;;;;;;5.57;61.04;100339.00;6298978;28;20078;-75
2023/03/13 08:50:31;;;;;;;6.90;2.75;;;;;;;5.71;61.69;100343.69;6298235;28;20388;-76
2023/03/13 08:53:35;;;;;;;9.73;3.78;;;;;;;5.77;61.52;100345.22;6297835;28;20041;-75
2023/03/13 08:56:36;;;;;;;5.60;2.17;;;;;;;5.94;61.38;100349.78;6296996;28;20037;-70
2023/03/13 08:59:37;;;;;;;5.22;3.15;;;;;;;5.99;61.86;100348.75;6298838;28;20120;-71
2023/03/13 09:02:40;;;;;;;8.90;3.40;;;;;;;6.15;61.55;100346.41;6297590;28;20051;-72
2023/03/13 09:05:41;;;;;;;12.90;5.20;;;;;;;6.26;61.16;100335.66;6297802;28;20048;-71
2023/03/13 09:08:44;;;;;;;6.35;3.92;;;;;;;6.49;60.21;100341.69;6299053;28;20124;-71
2023/03/13 09:11:45;;;;;;;1.50;1.35;;;;;;;6.53;60.14;100335.47;6297973;28;20075;-76
2023/03/13 09:14:47;;;;;;;3.17;1.88;;;;;;;6.57;58.81;100339.59;6298710;28;20044;-75
2023/03/13 09:17:50;;;;;;;2.60;2.00;;;;;;;6.47;58.43;100328.78;6297559;28;20082;-76
2023/03/13 09:20:51;;;;;;;3.53;2.33;;;;;;;6.60;58.52;100326.53;6299416;28;20040;-75
2023/03/13 09:23:54;;;;;;;3.73;2.40;;;;;;;6.59;58.90;100328.28;6299149;28;20510;-76
2023/03/13 09:26:57;;;;;;;2.05;1.63;;;;;;;6.71;58.63;100331.28;6296848;28;20044;-71
2023/03/13 09:29:58;;;;;;;4.50;2.35;;;;;;;6.92;57.88;100327.81;6299041;28;20041;-76
2023/03/13 09:32:59;;;;;;;3.55;2.15;;;;;;;6.98;57.76;100335.34;6297380;28;20037;-76
2023/03/13 09:36:00;;;;;;;3.15;1.88;;;;;;;7.11;57.75;100327.88;6297716;28;20406;-70
2023/03/13 09:39:01;;;;;;;1.90;1.52;;;;;;;7.08;58.23;100335.78;6296859;28;20044;-71
2023/03/13 09:42:01;;;;;;;4.40;2.72;;;;;;;7.30;58.24;100342.69;6295457;28;20128;-71
2023/03/13 09:45:16;;;;;;;4.40;2.45;;;;;;;7.26;57.79;100345.38;6295743;28;20196;-72
2023/03/13 09:48:40;;;;;;;9.68;2.20;;;;;;;7.23;56.92;100335.16;6296197;28;20633;-76
2023/03/13 09:51:47;;;;;;;5.40;2.45;;;;;;;7.38;58.21;100327.63;6298758;28;20059;-76
2023/03/13 09:55:16;;;;;;;3.83;2.08;;;;;;;7.67;56.65;100327.16;6297049;28;20106;-71
2023/03/13 09:58:24;;;;;;;4.28;2.53;;;;;;;7.76;58.28;100327.66;6296419;28;20461;-76
2023/03/13 10:01:30;;;;;;;6.78;3.15;;;;;;;7.83;56.32;100311.75;6296567;28;20505;-71
2023/03/13 10:04:44;;;;;;;3.15;2.25;;;;;;;7.88;56.67;100320.16;6295168;28;20061;-71
2023/03/13 10:07:50;;;;;;;6.32;2.75;;;;;;;8.16;56.63;100321.50;6294765;28;20056;-71
2023/03/13 10:11:03;;;;;;;2.53;2.33;;;;;;;8.28;56.25;100317.47;6297461;28;20044;-76
2023/03/13 10:14:21;;;;;;;5.45;2.67;;;;;;;8.55;56.89;100304.94;6297669;28;20041;-71
2023/03/13 10:17:38;;;;;;;6.35;2.60;;;;;;;9.00;53.72;100306.19;6297231;28;20089;-76
2023/03/13 10:20:41;;;;;;;2.05;1.55;;;;;;;9.62;49.72;100296.03;6297891;28;20044;-72
2023/03/13 10:23:54;;;;;;;4.93;2.38;;;;;;;9.41;49.37;100292.81;6297344;28;20091;-76
2023/03/13 10:26:56;;;;;;;5.78;3.08;;;;;;;9.77;49.87;100291.75;6296455;28;20048;-76
2023/03/13 10:29:57;;;;;;;3.03;1.67;;;;;;;9.82;50.41;100284.56;6297112;28;20067;-76
2023/03/13 10:33:21;;;;;;;5.35;3.10;;;;;;;10.19;51.08;100289.50;6296185;28;20036;-76
2023/03/13 10:36:22;;;;;;;4.30;2.40;;;;;;;10.18;49.23;100282.63;6297245;28;20060;-76
2023/03/13 10:39:25;;;;;;;7.20;3.10;;;;;;;9.64;48.73;100281.16;6298694;28;20040;-76
2023/03/13 10:42:32;;;;;;;4.43;2.22;;;;;;;9.55;49.64;100267.78;6297400;28;20106;-76
2023/03/13 10:45:35;;;;;;;4.80;2.50;;;;;;;9.89;48.40;100274.63;6297154;28;20560;-76
2023/03/13 10:48:36;;;;;;;3.55;2.35;;;;;;;10.30;49.73;100263.72;6297089;28;20098;-76
2023/03/13 10:51:39;;;;;;;3.15;2.10;;;;;;;10.21;47.80;100258.97;6295923;28;20049;-74
2023/03/13 10:54:44;;;;;;;7.53;3.13;;;;;;;10.11;47.42;100257.78;6296351;28;20490;-76
2023/03/13 10:58:19;;;;;;;6.28;2.60;;;;;;;10.15;45.74;100249.75;6296517;28;20123;-71
2023/03/13 11:01:32;;;;;;;1.92;1.70;;;;;;;10.14;45.49;100244.59;6288596;28;20102;-77
2023/03/13 11:04:33;;;;;;;;;;;;;;;10.40;46.56;100251.00;6298699;28;20093;-76
2023/03/13 11:07:37;;;;;;;3.33;2.03;;;;;;;10.52;45.72;100232.00;6295396;28;19972;-71
2023/03/13 11:10:50;;;;;;;2.55;1.75;;;;;;;10.53;44.92;100232.84;6299057;28;20051;-76
2023/03/13 11:13:51;;;;;;;2.38;1.75;;;;;;;10.32;44.94;100222.72;6298644;28;20047;-77
2023/03/13 11:16:59;;;;;;;3.50;2.33;;;;;;;10.64;45.36;100227.84;6299058;28;20045;-76
2023/03/13 11:20:00;;;;;;;4.47;2.03;;;;;;;10.91;44.31;100222.75;6301251;28;20037;-72
2023/03/13 11:23:17;;;;;;;4.30;2.35;;;;;;;10.68;43.26;100214.50;6300395;28;20145;-71
2023/03/13 11:26:35;;;;;;;5.95;2.25;;;;;;;10.85;43.57;100213.53;6300896;28;20514;-72
2023/03/13 11:29:58;;;;;;;4.55;2.30;;;;;;;11.01;44.68;100205.59;6301587;28;20037;-76
2023/03/13 11:33:04;;;;;;;5.75;1.73;;;;;;;11.04;43.70;100205.44;6302757;28;20036;-77
2023/03/13 11:36:37;;;;;;;4.38;2.00;;;;;;;11.10;43.67;100204.22;6302974;28;20036;-77
2023/03/13 11:39:41;;;;;;;3.00;2.10;;;;;;;10.94;42.65;100190.44;6299809;28;20048;-76
2023/03/13 11:43:01;;;;;;;3.47;2.15;;;;;;;11.71;45.09;100181.28;6303121;28;20049;-71
2023/03/13 11:46:14;;;;;;;3.72;1.65;;;;;;;11.51;43.61;100169.50;6302064;28;20041;-76
2023/03/13 11:49:38;;;;;;;4.03;1.95;;;;;;;11.27;43.53;100159.63;6301724;28;20045;-71
2023/03/13 11:53:02;;;;;;;1.95;1.55;;;;;;;11.59;43.54;100155.91;6302576;28;20487;-77
2023/03/13 11:56:20;;;;;;;2.65;1.75;;;;;;;11.77;41.74;100159.97;6305815;28;20044;-77
2023/03/13 11:59:48;;;;;;;6.90;2.30;;;;;;;11.76;43.48;100149.63;6304671;28;20048;-76
2023/03/13 12:02:53;;;;;;;3.90;2.05;;;;;;;11.38;43.31;100145.88;6302958;28;20041;-76
2023/03/13 12:05:59;;;;;;;1.90;1.60;;;;;;;11.25;42.92;100137.97;6301277;28;20131;-72
2023/03/13 12:09:29;;;;;;;2.65;1.92;;;;;;;11.67;42.13;100132.75;6302343;28;20041;-77
2023/03/13 12:12:39;;;;;;;2.42;1.70;;;;;;;11.94;43.39;100135.38;6301720;28;20096;-77
2023/03/13 12:15:44;;;;;;;1.38;1.27;;;;;;;12.08;42.27;100134.47;6304151;28;20045;-77
2023/03/13 12:18:47;;;;;;;2.47;1.55;;;;;;;11.58;41.76;100135.97;6304641;28;20127;-76
2023/03/13 12:22:13;;;;;;;3.10;2.38;;;;;;;11.56;43.29;100130.00;6304232;28;20041;-76
2023/03/13 12:25:24;;;;;;;3.35;2.03;;;;;;;11.64;43.06;100120.72;6302299;28;20051;-76
2023/03/13 12:28:35;;;;;;;6.32;2.10;;;;;;;11.96;43.90;100114.34;6302168;28;20505;-71
2023/03/13 12:31:46;;;;;;;4.53;1.63;;;;;;;12.09;43.33;100118.69;6296858;28;20111;-71
2023/03/13 12:35:08;;;;;;;3.25;2.22;;;;;;;12.09;42.88;100115.25;6303857;28;20040;-77
2023/03/13 12:38:37;;;;;;;3.17;2.03;;;;;;;12.23;43.26;100102.09;6296490;28;20075;-76
2023/03/13 12:41:45;;;;;;;6.38;2.00;;;;;;;12.39;43.84;100098.41;6298016;28;20061;-72
2023/03/13 12:44:46;;;;;;;2.22;1.80;;;;;;;12.38;43.31;100100.19;6298518;28;20479;-72
2023/03/13 12:48:11;;;;;;;3.22;1.60;;;;;;;12.19;43.99;100089.28;6300494;28;20039;-72
2023/03/13 12:51:33;;;;;;;3.50;1.75;;;;;;;12.29;44.17;100082.50;6298063;28;20040;-73
2023/03/13 12:55:00;;;;;;;3.17;1.80;;;;;;;12.32;43.86;100078.84;6297992;28;20506;-72
2023/03/13 12:58:10;;;;;;;4.10;1.90;;;;;;;12.32;43.00;100077.06;6301336;28;20037;-77
2023/03/13 13:01:29;;;;;;;2.97;2.15;;;;;;;12.42;45.01;100053.75;6299056;28;20053;-72
2023/03/13 13:04:33;;;;;;;3.28;1.60;;;;;;;12.29;43.86;100049.34;6299872;28;20047;-71
2023/03/13 13:07:37;;;;;;;4.70;1.92;;;;;;;12.28;44.39;100057.28;6298324;28;20040;-77
2023/03/13 13:10:40;;;;;;;6.25;2.30;;;;;;;12.49;43.10;100057.59;6297728;28;20127;-77
2023/03/13 13:13:44;;;;;;;7.18;3.97;;;;;;;12.45;42.40;100056.13;6301795;28;20040;-77
2023/03/13 13:17:12;;;;;;;3.20;1.92;;;;;;;12.60;43.81;100055.09;6298658;28;20066;-76
2023/03/13 13:20:34;;;;;;;1.90;1.70;;;;;;;12.41;42.24;100062.50;6298073;28;20041;-76
2023/03/13 13:23:38;;;;;;;3.05;2.28;;;;;;;12.43;42.57;100060.63;6300825;28;20045;-77
2023/03/13 13:26:46;;;;;;;3.00;2.05;;;;;;;12.64;43.17;100053.06;6301174;28;20051;-77
2023/03/13 13:29:53;;;;;;;3.38;1.85;;;;;;;12.51;42.60;100047.84;6302558;28;20486;-77
2023/03/13 13:33:15;;;;;;;2.58;1.55;;;;;;;12.55;44.18;100038.84;6300827;28;20055;-77
2023/03/13 13:36:22;;;;;;;2.50;1.42;;;;;;;12.50;43.36;100043.59;6300990;28;20087;-72
2023/03/13 13:39:33;;;;;;;3.08;1.80;;;;;;;12.56;42.25;100026.59;6295767;28;20071;-71
2023/03/13 13:42:44;;;;;;;2.28;1.67;;;;;;;12.58;43.51;100029.94;6301070;28;20056;-77
2023/03/13 13:46:23;;;;;;;4.72;1.60;;;;;;;12.54;43.13;100025.88;6301164;28;20502;-77
2023/03/13 13:49:31;;;;;;;1.90;1.05;;;;;;;12.70;43.08;100018.63;6279794;28;20060;-76
2023/03/13 13:52:38;;;;;;;2.60;1.85;;;;;;;12.48;44.32;100017.50;6302444;28;20051;-71
2023/03/13 13:55:39;;;;;;;2.38;1.70;;;;;;;12.24;44.27;100021.81;6296767;28;20098;-72
2023/03/13 13:58:43;;;;;;;2.05;1.40;;;;;;;12.40;43.95;100009.34;6295458;28;20559;-73
2023/03/13 14:01:44;;;;;;;2.17;1.63;;;;;;;12.30;44.08;100010.94;6299746;28;20043;-76
2023/03/13 14:05:13;;;;;;;2.53;1.98;;;;;;;12.28;43.56;100004.97;6297402;28;20040;-71
2023/03/13 14:08:23;;;;;;;2.00;1.55;;;;;;;12.40;44.38;100000.69;6291173;28;20065;-71
2023/03/13 14:11:29;;;;;;;2.03;1.15;;;;;;;12.14;44.00;100002.47;6296160;28;20063;-72
2023/03/13 14:14:30;;;;;;;1.52;1.25;;;;;;;12.13;44.91;99999.00;6303812;28;20041;-72
2023/03/13 14:17:46;;;;;;;3.30;1.80;;;;;;;12.08;44.14;99977.56;6296221;28;20047;-71
2023/03/13 14:21:14;;;;;;;3.20;1.85;;;;;;;12.26;44.41;99978.06;6299065;28;20048;-71
2023/03/13 14:24:15;;;;;;;3.95;1.23;;;;;;;12.00;44.33;99972.84;6298212;28;20036;-77
2023/03/13 14:27:18;;;;;;;3.30;1.60;;;;;;;12.07;45.04;99979.34;6301403;28;20045;-72
2023/03/13 14:30:22;;;;;;;3.53;1.45;;;;;;;12.16;45.26;99974.41;6297236;28;20086;-77